sensor_id;sensor_type;location;lat;lon;timestamp;temperature;humidity
70928;SHT31;58587;53.034;18.576;2023-01-13T10:52:31;9.14;91.22
70928;SHT31;58587;53.034;18.576;2023-01-13T10:54:57;9.15;91.21
70928;SHT31;58587;53.034;18.576;2023-01-13T10:57:25;9.14;91.18
70928;SHT31;58587;53.034;18.576;2023-01-13T10:59:51;9.07;90.91
70928;SHT31;58587;53.034;18.576;2023-01-13T11:02:26;9.11;91.00
70928;SHT31;58587;53.034;18.576;2023-01-13T11:13:18;9.27;90.28
70928;SHT31;58587;53.034;18.576;2023-01-13T11:15:51;9.34;89.94
70928;SHT31;58587;53.034;18.576;2023-01-13T11:18:42;9.50;89.63
70928;SHT31;58587;53.034;18.576;2023-01-13T11:21:22;9.80;89.18
70928;SHT31;58587;53.034;18.576;2023-01-13T11:23:55;10.10;88.58
70928;SHT31;58587;53.034;18.576;2023-01-13T11:26:37;10.33;87.44
70928;SHT31;58587;53.034;18.576;2023-01-13T11:29:19;10.45;86.43
70928;SHT31;58587;53.034;18.576;2023-01-13T11:31:52;10.50;86.91
70928;SHT31;58587;53.034;18.576;2023-01-13T11:36:51;10.29;85.92
70928;SHT31;58587;53.034;18.576;2023-01-13T11:42:14;10.10;87.07
70928;SHT31;58587;53.034;18.576;2023-01-13T11:47:21;9.90;86.75
70928;SHT31;58587;53.034;18.576;2023-01-13T11:49:48;9.93;87.33
70928;SHT31;58587;53.034;18.576;2023-01-13T11:57:44;9.75;87.84
70928;SHT31;58587;53.034;18.576;2023-01-13T12:00:32;9.62;87.70
70928;SHT31;58587;53.034;18.576;2023-01-13T12:03:18;9.52;88.68
70928;SHT31;58587;53.034;18.576;2023-01-13T12:06:00;9.48;89.62
70928;SHT31;58587;53.034;18.576;2023-01-13T12:11:20;9.52;90.16
70928;SHT31;58587;53.034;18.576;2023-01-13T12:14:15;9.43;90.20
70928;SHT31;58587;53.034;18.576;2023-01-13T12:16:47;9.39;90.07
70928;SHT31;58587;53.034;18.576;2023-01-13T12:19:21;9.36;90.23
70928;SHT31;58587;53.034;18.576;2023-01-13T12:22:12;9.32;90.52
70928;SHT31;58587;53.034;18.576;2023-01-13T12:24:42;9.36;90.64
70928;SHT31;58587;53.034;18.576;2023-01-13T12:27:32;9.32;89.98
70928;SHT31;58587;53.034;18.576;2023-01-13T12:30:00;9.36;90.09
70928;SHT31;58587;53.034;18.576;2023-01-13T12:32:37;9.35;90.05
70928;SHT31;58587;53.034;18.576;2023-01-13T12:35:28;9.29;90.12
70928;SHT31;58587;53.034;18.576;2023-01-13T12:38:15;9.34;90.44
70928;SHT31;58587;53.034;18.576;2023-01-13T12:41:20;9.32;90.75
70928;SHT31;58587;53.034;18.576;2023-01-13T12:43:54;9.29;91.10
70928;SHT31;58587;53.034;18.576;2023-01-13T12:46:45;9.24;90.83
70928;SHT31;58587;53.034;18.576;2023-01-13T12:49:19;9.21;91.00
70928;SHT31;58587;53.034;18.576;2023-01-13T12:59:45;9.18;91.42
70928;SHT31;58587;53.034;18.576;2023-01-13T13:02:36;9.11;91.98
70928;SHT31;58587;53.034;18.576;2023-01-13T13:07:51;9.11;92.13
70928;SHT31;58587;53.034;18.576;2023-01-13T13:10:27;9.11;92.27
70928;SHT31;58587;53.034;18.576;2023-01-13T13:12:59;9.15;92.17
70928;SHT31;58587;53.034;18.576;2023-01-13T13:15:48;9.12;92.13
70928;SHT31;58587;53.034;18.576;2023-01-13T13:21:02;9.14;91.57
70928;SHT31;58587;53.034;18.576;2023-01-13T13:26:43;9.10;91.83
70928;SHT31;58587;53.034;18.576;2023-01-13T13:39:56;9.03;91.60
70928;SHT31;58587;53.034;18.576;2023-01-13T13:42:50;9.03;91.43
70928;SHT31;58587;53.034;18.576;2023-01-13T13:45:49;9.01;91.49
70928;SHT31;58587;53.034;18.576;2023-01-13T13:48:33;8.97;91.89
70928;SHT31;58587;53.034;18.576;2023-01-13T13:51:01;8.97;92.28
70928;SHT31;58587;53.034;18.576;2023-01-13T13:53:35;8.94;92.55
70928;SHT31;58587;53.034;18.576;2023-01-13T13:56:02;8.89;92.77
70928;SHT31;58587;53.034;18.576;2023-01-13T13:58:30;8.88;93.04
70928;SHT31;58587;53.034;18.576;2023-01-13T14:00:58;8.87;93.09
70928;SHT31;58587;53.034;18.576;2023-01-13T14:03:30;8.84;93.27
70928;SHT31;58587;53.034;18.576;2023-01-13T14:06:03;8.80;93.51
70928;SHT31;58587;53.034;18.576;2023-01-13T14:08:34;8.80;93.46
70928;SHT31;58587;53.034;18.576;2023-01-13T14:11:00;8.77;93.69
70928;SHT31;58587;53.034;18.576;2023-01-13T14:13:28;8.76;93.70
70928;SHT31;58587;53.034;18.576;2023-01-13T14:16:03;8.74;93.77
70928;SHT31;58587;53.034;18.576;2023-01-13T14:18:31;8.70;94.06
70928;SHT31;58587;53.034;18.576;2023-01-13T14:21:17;8.68;94.25
70928;SHT31;58587;53.034;18.576;2023-01-13T14:23:54;8.71;94.22
70928;SHT31;58587;53.034;18.576;2023-01-13T14:26:27;8.66;94.42
70928;SHT31;58587;53.034;18.576;2023-01-13T14:28:55;8.64;94.32
70928;SHT31;58587;53.034;18.576;2023-01-13T14:31:21;8.60;94.37
70928;SHT31;58587;53.034;18.576;2023-01-13T14:33:54;8.57;94.06
70928;SHT31;58587;53.034;18.576;2023-01-13T14:36:34;8.57;93.95
70928;SHT31;58587;53.034;18.576;2023-01-13T14:44:27;8.49;92.85
70928;SHT31;58587;53.034;18.576;2023-01-13T14:46:54;8.47;92.29
70928;SHT31;58587;53.034;18.576;2023-01-13T14:49:31;8.40;92.51
70928;SHT31;58587;53.034;18.576;2023-01-13T14:52:06;8.37;92.52
70928;SHT31;58587;53.034;18.576;2023-01-13T14:59:55;8.28;92.62
70928;SHT31;58587;53.034;18.576;2023-01-13T15:04:53;8.19;92.95
70928;SHT31;58587;53.034;18.576;2023-01-13T15:07:28;8.14;93.19
70928;SHT31;58587;53.034;18.576;2023-01-13T15:10:00;8.10;93.48
70928;SHT31;58587;53.034;18.576;2023-01-13T15:12:37;8.05;93.35
70928;SHT31;58587;53.034;18.576;2023-01-13T15:15:20;8.07;93.63
70928;SHT31;58587;53.034;18.576;2023-01-13T15:17:46;7.99;93.50
70928;SHT31;58587;53.034;18.576;2023-01-13T15:20:13;8.02;93.60
70928;SHT31;58587;53.034;18.576;2023-01-13T15:22:38;7.98;93.80
70928;SHT31;58587;53.034;18.576;2023-01-13T15:25:04;7.95;93.87
70928;SHT31;58587;53.034;18.576;2023-01-13T15:27:29;7.93;94.06
70928;SHT31;58587;53.034;18.576;2023-01-13T15:29:55;7.92;94.19
70928;SHT31;58587;53.034;18.576;2023-01-13T15:32:20;7.89;94.45
70928;SHT31;58587;53.034;18.576;2023-01-13T15:34:46;7.89;94.45
70928;SHT31;58587;53.034;18.576;2023-01-13T15:37:15;7.88;94.46
70928;SHT31;58587;53.034;18.576;2023-01-13T15:39:41;7.89;94.59
70928;SHT31;58587;53.034;18.576;2023-01-13T15:42:12;7.89;94.61
70928;SHT31;58587;53.034;18.576;2023-01-13T15:44:56;7.88;95.02
70928;SHT31;58587;53.034;18.576;2023-01-13T15:47:40;7.83;95.15
70928;SHT31;58587;53.034;18.576;2023-01-13T15:50:13;7.83;95.25
70928;SHT31;58587;53.034;18.576;2023-01-13T15:52:38;7.85;95.00
70928;SHT31;58587;53.034;18.576;2023-01-13T15:55:04;7.85;95.10
70928;SHT31;58587;53.034;18.576;2023-01-13T15:57:31;7.85;95.09
70928;SHT31;58587;53.034;18.576;2023-01-13T16:00:01;7.85;95.13
70928;SHT31;58587;53.034;18.576;2023-01-13T16:02:28;7.85;95.30
70928;SHT31;58587;53.034;18.576;2023-01-13T16:04:55;7.88;95.31
70928;SHT31;58587;53.034;18.576;2023-01-13T16:07:21;7.89;95.11
70928;SHT31;58587;53.034;18.576;2023-01-13T16:09:47;7.89;95.15
70928;SHT31;58587;53.034;18.576;2023-01-13T16:12:13;7.89;95.18
70928;SHT31;58587;53.034;18.576;2023-01-13T16:14:38;7.89;95.07
70928;SHT31;58587;53.034;18.576;2023-01-13T16:17:18;7.89;95.03
70928;SHT31;58587;53.034;18.576;2023-01-13T16:19:44;7.89;95.14
70928;SHT31;58587;53.034;18.576;2023-01-13T16:22:11;7.88;95.24
70928;SHT31;58587;53.034;18.576;2023-01-13T16:24:36;7.83;95.24
70928;SHT31;58587;53.034;18.576;2023-01-13T16:27:25;7.86;95.23
70928;SHT31;58587;53.034;18.576;2023-01-13T16:29:51;7.85;95.09
70928;SHT31;58587;53.034;18.576;2023-01-13T16:32:16;7.82;95.06
70928;SHT31;58587;53.034;18.576;2023-01-13T16:34:43;7.79;95.03
70928;SHT31;58587;53.034;18.576;2023-01-13T16:37:27;7.79;94.50
70928;SHT31;58587;53.034;18.576;2023-01-13T16:39:53;7.72;94.72
70928;SHT31;58587;53.034;18.576;2023-01-13T16:42:19;7.69;94.72
70928;SHT31;58587;53.034;18.576;2023-01-13T16:44:44;7.67;94.80
70928;SHT31;58587;53.034;18.576;2023-01-13T16:47:16;7.65;94.85
70928;SHT31;58587;53.034;18.576;2023-01-13T16:49:42;7.67;94.66
70928;SHT31;58587;53.034;18.576;2023-01-13T16:52:07;7.64;94.77
70928;SHT31;58587;53.034;18.576;2023-01-13T16:54:33;7.61;94.82
70928;SHT31;58587;53.034;18.576;2023-01-13T16:56:58;7.54;94.82
70928;SHT31;58587;53.034;18.576;2023-01-13T16:59:23;7.50;94.72
70928;SHT31;58587;53.034;18.576;2023-01-13T17:01:49;7.52;94.87
70928;SHT31;58587;53.034;18.576;2023-01-13T17:04:19;7.48;94.83
70928;SHT31;58587;53.034;18.576;2023-01-13T17:06:57;7.44;94.85
70928;SHT31;58587;53.034;18.576;2023-01-13T17:09:25;7.43;94.74
70928;SHT31;58587;53.034;18.576;2023-01-13T17:11:51;7.43;94.64
70928;SHT31;58587;53.034;18.576;2023-01-13T17:14:17;7.40;94.63
70928;SHT31;58587;53.034;18.576;2023-01-13T17:16:46;7.40;94.48
70928;SHT31;58587;53.034;18.576;2023-01-13T17:19:11;7.34;94.54
70928;SHT31;58587;53.034;18.576;2023-01-13T17:21:36;7.32;94.64
70928;SHT31;58587;53.034;18.576;2023-01-13T17:24:02;7.30;94.48
70928;SHT31;58587;53.034;18.576;2023-01-13T17:26:38;7.23;94.68
70928;SHT31;58587;53.034;18.576;2023-01-13T17:29:08;7.18;94.92
70928;SHT31;58587;53.034;18.576;2023-01-13T17:31:35;7.17;94.84
70928;SHT31;58587;53.034;18.576;2023-01-13T17:34:02;7.14;94.92
70928;SHT31;58587;53.034;18.576;2023-01-13T17:36:28;7.11;94.88
70928;SHT31;58587;53.034;18.576;2023-01-13T17:38:54;7.10;94.95
70928;SHT31;58587;53.034;18.576;2023-01-13T17:41:20;7.07;95.12
70928;SHT31;58587;53.034;18.576;2023-01-13T17:43:45;7.06;94.97
70928;SHT31;58587;53.034;18.576;2023-01-13T17:46:12;7.03;94.95
70928;SHT31;58587;53.034;18.576;2023-01-13T17:48:38;7.03;94.90
70928;SHT31;58587;53.034;18.576;2023-01-13T17:51:07;6.99;94.87
70928;SHT31;58587;53.034;18.576;2023-01-13T17:53:33;6.96;94.64
70928;SHT31;58587;53.034;18.576;2023-01-13T17:55:58;6.92;94.55
70928;SHT31;58587;53.034;18.576;2023-01-13T17:58:23;6.92;94.34
70928;SHT31;58587;53.034;18.576;2023-01-13T18:00:55;6.86;94.37
70928;SHT31;58587;53.034;18.576;2023-01-13T18:03:20;6.82;94.41
70928;SHT31;58587;53.034;18.576;2023-01-13T18:05:46;6.79;94.50
70928;SHT31;58587;53.034;18.576;2023-01-13T18:08:11;6.76;94.40
70928;SHT31;58587;53.034;18.576;2023-01-13T18:10:36;6.71;94.38
70928;SHT31;58587;53.034;18.576;2023-01-13T18:13:02;6.68;94.45
70928;SHT31;58587;53.034;18.576;2023-01-13T18:15:28;6.69;94.45
70928;SHT31;58587;53.034;18.576;2023-01-13T18:17:54;6.66;94.27
70928;SHT31;58587;53.034;18.576;2023-01-13T18:20:19;6.61;94.26
70928;SHT31;58587;53.034;18.576;2023-01-13T18:23:03;6.59;94.31
70928;SHT31;58587;53.034;18.576;2023-01-13T18:25:47;6.53;94.31
70928;SHT31;58587;53.034;18.576;2023-01-13T18:28:31;6.48;94.30
70928;SHT31;58587;53.034;18.576;2023-01-13T18:30:57;6.45;94.42
70928;SHT31;58587;53.034;18.576;2023-01-13T18:33:22;6.42;94.50
70928;SHT31;58587;53.034;18.576;2023-01-13T18:35:48;6.39;94.67
70928;SHT31;58587;53.034;18.576;2023-01-13T18:38:13;6.41;94.72
70928;SHT31;58587;53.034;18.576;2023-01-13T18:40:42;6.39;94.66
70928;SHT31;58587;53.034;18.576;2023-01-13T18:43:08;6.35;94.83
70928;SHT31;58587;53.034;18.576;2023-01-13T18:45:33;6.33;94.76
70928;SHT31;58587;53.034;18.576;2023-01-13T18:48:00;6.29;94.87
70928;SHT31;58587;53.034;18.576;2023-01-13T18:50:26;6.25;94.83
70928;SHT31;58587;53.034;18.576;2023-01-13T18:52:52;6.21;94.93
70928;SHT31;58587;53.034;18.576;2023-01-13T18:55:18;6.17;94.90
70928;SHT31;58587;53.034;18.576;2023-01-13T18:57:44;6.14;94.95
70928;SHT31;58587;53.034;18.576;2023-01-13T19:00:16;6.14;94.85
70928;SHT31;58587;53.034;18.576;2023-01-13T19:02:43;6.11;94.84
70928;SHT31;58587;53.034;18.576;2023-01-13T19:05:08;6.08;94.63
70928;SHT31;58587;53.034;18.576;2023-01-13T19:07:34;6.04;94.74
70928;SHT31;58587;53.034;18.576;2023-01-13T19:10:00;6.01;94.71
70928;SHT31;58587;53.034;18.576;2023-01-13T19:12:28;6.04;94.78
70928;SHT31;58587;53.034;18.576;2023-01-13T19:14:56;6.00;94.57
70928;SHT31;58587;53.034;18.576;2023-01-13T19:17:23;5.95;94.52
70928;SHT31;58587;53.034;18.576;2023-01-13T19:19:53;5.95;94.58
70928;SHT31;58587;53.034;18.576;2023-01-13T19:22:21;5.95;94.40
70928;SHT31;58587;53.034;18.576;2023-01-13T19:24:48;5.91;94.35
70928;SHT31;58587;53.034;18.576;2023-01-13T19:27:15;5.87;94.27
70928;SHT31;58587;53.034;18.576;2023-01-13T19:29:42;5.87;94.36
70928;SHT31;58587;53.034;18.576;2023-01-13T19:32:07;5.84;94.41
70928;SHT31;58587;53.034;18.576;2023-01-13T19:34:33;5.80;94.20
70928;SHT31;58587;53.034;18.576;2023-01-13T19:36:58;5.78;94.38
70928;SHT31;58587;53.034;18.576;2023-01-13T19:39:24;5.74;94.29
70928;SHT31;58587;53.034;18.576;2023-01-13T19:41:49;5.74;94.12
70928;SHT31;58587;53.034;18.576;2023-01-13T19:44:33;5.71;94.04
70928;SHT31;58587;53.034;18.576;2023-01-13T19:47:18;5.67;94.25
70928;SHT31;58587;53.034;18.576;2023-01-13T19:49:43;5.67;94.21
70928;SHT31;58587;53.034;18.576;2023-01-13T19:52:09;5.66;94.08
70928;SHT31;58587;53.034;18.576;2023-01-13T19:54:34;5.66;94.13
70928;SHT31;58587;53.034;18.576;2023-01-13T19:57:00;5.63;93.90
70928;SHT31;58587;53.034;18.576;2023-01-13T19:59:25;5.60;93.91
70928;SHT31;58587;53.034;18.576;2023-01-13T20:01:58;5.59;93.92
70928;SHT31;58587;53.034;18.576;2023-01-13T20:04:24;5.57;93.87
70928;SHT31;58587;53.034;18.576;2023-01-13T20:07:00;5.53;93.85
70928;SHT31;58587;53.034;18.576;2023-01-13T20:09:26;5.50;93.99
70928;SHT31;58587;53.034;18.576;2023-01-13T20:11:51;5.47;93.91
70928;SHT31;58587;53.034;18.576;2023-01-13T20:14:17;5.47;93.95
70928;SHT31;58587;53.034;18.576;2023-01-13T20:16:43;5.47;93.86
70928;SHT31;58587;53.034;18.576;2023-01-13T20:19:08;5.43;93.75
70928;SHT31;58587;53.034;18.576;2023-01-13T20:21:34;5.44;93.42
70928;SHT31;58587;53.034;18.576;2023-01-13T20:23:59;5.42;93.37
70928;SHT31;58587;53.034;18.576;2023-01-13T20:26:24;5.39;93.60
70928;SHT31;58587;53.034;18.576;2023-01-13T20:28:49;5.43;93.31
70928;SHT31;58587;53.034;18.576;2023-01-13T20:31:15;5.40;93.47
70928;SHT31;58587;53.034;18.576;2023-01-13T20:33:42;5.43;93.34
70928;SHT31;58587;53.034;18.576;2023-01-13T20:36:22;5.44;93.38
70928;SHT31;58587;53.034;18.576;2023-01-13T20:38:49;5.44;93.36
70928;SHT31;58587;53.034;18.576;2023-01-13T20:41:14;5.50;93.02
70928;SHT31;58587;53.034;18.576;2023-01-13T20:43:58;5.49;93.10
70928;SHT31;58587;53.034;18.576;2023-01-13T20:46:23;5.54;92.55
70928;SHT31;58587;53.034;18.576;2023-01-13T20:48:49;5.50;92.54
70928;SHT31;58587;53.034;18.576;2023-01-13T20:51:14;5.49;92.83
70928;SHT31;58587;53.034;18.576;2023-01-13T20:53:39;5.46;92.49
70928;SHT31;58587;53.034;18.576;2023-01-13T20:56:06;5.50;91.94
70928;SHT31;58587;53.034;18.576;2023-01-13T20:58:32;5.47;91.94
70928;SHT31;58587;53.034;18.576;2023-01-13T21:00:58;5.44;92.24
70928;SHT31;58587;53.034;18.576;2023-01-13T21:03:23;5.39;92.19
70928;SHT31;58587;53.034;18.576;2023-01-13T21:05:48;5.37;92.22
70928;SHT31;58587;53.034;18.576;2023-01-13T21:08:14;5.35;92.32
70928;SHT31;58587;53.034;18.576;2023-01-13T21:10:39;5.35;92.20
70928;SHT31;58587;53.034;18.576;2023-01-13T21:13:04;5.32;92.20
70928;SHT31;58587;53.034;18.576;2023-01-13T21:15:53;5.36;91.59
70928;SHT31;58587;53.034;18.576;2023-01-13T21:18:19;5.35;91.77
70928;SHT31;58587;53.034;18.576;2023-01-13T21:21:04;5.35;91.72
70928;SHT31;58587;53.034;18.576;2023-01-13T21:23:43;5.29;91.86
70928;SHT31;58587;53.034;18.576;2023-01-13T21:26:09;5.29;91.82
70928;SHT31;58587;53.034;18.576;2023-01-13T21:28:35;5.27;91.79
70928;SHT31;58587;53.034;18.576;2023-01-13T21:31:05;5.26;91.94
70928;SHT31;58587;53.034;18.576;2023-01-13T21:33:30;5.25;91.94
70928;SHT31;58587;53.034;18.576;2023-01-13T21:35:56;5.23;91.85
70928;SHT31;58587;53.034;18.576;2023-01-13T21:38:22;5.22;91.86
70928;SHT31;58587;53.034;18.576;2023-01-13T21:40:57;5.22;91.54
70928;SHT31;58587;53.034;18.576;2023-01-13T21:43:27;5.20;91.47
70928;SHT31;58587;53.034;18.576;2023-01-13T21:46:13;5.22;91.52
70928;SHT31;58587;53.034;18.576;2023-01-13T21:48:59;5.22;91.47
70928;SHT31;58587;53.034;18.576;2023-01-13T21:51:25;5.22;91.39
70928;SHT31;58587;53.034;18.576;2023-01-13T21:53:52;5.19;91.35
70928;SHT31;58587;53.034;18.576;2023-01-13T21:56:17;5.15;91.66
70928;SHT31;58587;53.034;18.576;2023-01-13T21:58:43;5.12;91.55
70928;SHT31;58587;53.034;18.576;2023-01-13T22:01:08;5.11;91.37
70928;SHT31;58587;53.034;18.576;2023-01-13T22:03:36;5.08;91.57
70928;SHT31;58587;53.034;18.576;2023-01-13T22:06:22;5.09;91.36
70928;SHT31;58587;53.034;18.576;2023-01-13T22:08:47;5.06;91.33
70928;SHT31;58587;53.034;18.576;2023-01-13T22:11:13;5.06;91.34
70928;SHT31;58587;53.034;18.576;2023-01-13T22:13:38;5.02;91.44
70928;SHT31;58587;53.034;18.576;2023-01-13T22:16:22;5.05;91.39
70928;SHT31;58587;53.034;18.576;2023-01-13T22:18:48;4.98;91.59
70928;SHT31;58587;53.034;18.576;2023-01-13T22:21:14;5.00;91.11
70928;SHT31;58587;53.034;18.576;2023-01-13T22:23:39;5.02;91.14
70928;SHT31;58587;53.034;18.576;2023-01-13T22:26:05;5.05;90.67
70928;SHT31;58587;53.034;18.576;2023-01-13T22:28:31;5.06;90.61
70928;SHT31;58587;53.034;18.576;2023-01-13T22:31:17;5.06;90.48
70928;SHT31;58587;53.034;18.576;2023-01-13T22:33:43;4.99;90.72
70928;SHT31;58587;53.034;18.576;2023-01-13T22:36:11;5.00;90.70
70928;SHT31;58587;53.034;18.576;2023-01-13T22:38:37;4.98;90.83
70928;SHT31;58587;53.034;18.576;2023-01-13T22:41:04;5.00;90.42
70928;SHT31;58587;53.034;18.576;2023-01-13T22:43:31;5.04;90.18
70928;SHT31;58587;53.034;18.576;2023-01-13T22:46:03;4.99;90.60
70928;SHT31;58587;53.034;18.576;2023-01-13T22:48:30;5.00;90.14
70928;SHT31;58587;53.034;18.576;2023-01-13T22:50:55;5.05;90.19
70928;SHT31;58587;53.034;18.576;2023-01-13T22:53:21;4.96;90.52
70928;SHT31;58587;53.034;18.576;2023-01-13T22:55:54;4.91;90.67
70928;SHT31;58587;53.034;18.576;2023-01-13T22:58:19;4.96;90.45
70928;SHT31;58587;53.034;18.576;2023-01-13T23:00:45;4.96;90.42
70928;SHT31;58587;53.034;18.576;2023-01-13T23:03:11;4.89;90.38
70928;SHT31;58587;53.034;18.576;2023-01-13T23:05:36;4.89;90.49
70928;SHT31;58587;53.034;18.576;2023-01-13T23:08:01;4.89;90.58
70928;SHT31;58587;53.034;18.576;2023-01-13T23:10:27;4.89;90.31
70928;SHT31;58587;53.034;18.576;2023-01-13T23:12:52;4.89;90.47
70928;SHT31;58587;53.034;18.576;2023-01-13T23:15:17;4.86;90.16
70928;SHT31;58587;53.034;18.576;2023-01-13T23:17:43;4.85;90.55
70928;SHT31;58587;53.034;18.576;2023-01-13T23:20:09;4.86;90.36
70928;SHT31;58587;53.034;18.576;2023-01-13T23:22:35;4.84;90.31
70928;SHT31;58587;53.034;18.576;2023-01-13T23:25:02;4.84;90.26
70928;SHT31;58587;53.034;18.576;2023-01-13T23:27:28;4.84;90.22
70928;SHT31;58587;53.034;18.576;2023-01-13T23:29:53;4.81;90.15
70928;SHT31;58587;53.034;18.576;2023-01-13T23:32:18;4.82;90.16
70928;SHT31;58587;53.034;18.576;2023-01-13T23:34:44;4.79;90.39
70928;SHT31;58587;53.034;18.576;2023-01-13T23:37:09;4.78;90.28
70928;SHT31;58587;53.034;18.576;2023-01-13T23:39:34;4.76;90.20
70928;SHT31;58587;53.034;18.576;2023-01-13T23:42:00;4.76;90.28
70928;SHT31;58587;53.034;18.576;2023-01-13T23:44:25;4.71;90.49
70928;SHT31;58587;53.034;18.576;2023-01-13T23:46:50;4.71;90.65
70928;SHT31;58587;53.034;18.576;2023-01-13T23:49:15;4.67;90.97
70928;SHT31;58587;53.034;18.576;2023-01-13T23:51:41;4.67;90.72
70928;SHT31;58587;53.034;18.576;2023-01-13T23:54:06;4.64;90.80
70928;SHT31;58587;53.034;18.576;2023-01-13T23:56:32;4.62;90.80
70928;SHT31;58587;53.034;18.576;2023-01-13T23:58:59;4.60;90.82
